Time,TemperatureF,DewpointF,PressureIn,WindDirection,WindDirectionDegrees,WindSpeedMPH,WindSpeedGustMPH,Humidity,HourlyPrecipIn,Conditions,Clouds,dailyrainin,SoftwareType,DateUTC
2013-01-08 00:05:00,35.8,23.0,30.16,SW,235,7.0,10.0,60,0.00,,,0.00,weatherlink.com 1.10,2013-01-08 06:05:00,
2013-01-08 00:20:00,35.4,23.0,30.15,SW,235,4.0,9.0,61,0.00,,,0.00,weatherlink.com 1.10,2013-01-08 06:20:00,
2013-01-08 00:35:00,35.2,23.0,30.15,SW,222,7.0,9.0,61,0.00,,,0.00,weatherlink.com 1.10,2013-01-08 06:35:00,
2013-01-08 00:50:00,35.1,23.0,30.14,SW,232,3.0,11.0,61,0.00,,,0.00,weatherlink.com 1.10,2013-01-08 06:50:00,
2013-01-08 01:05:00,35.1,23.0,30.14,SW,235,4.0,12.0,62,0.00,,,0.00,weatherlink.com 1.10,2013-01-08 07:05:00,
2013-01-08 01:20:00,34.9,23.0,30.14,SW,215,5.0,11.0,62,0.00,,,0.00,weatherlink.com 1.10,2013-01-08 07:20:00,
2013-01-08 01:35:00,34.6,23.0,30.14,SW,233,3.0,9.0,62,0.00,,,0.00,weatherlink.com 1.10,2013-01-08 07:35:00,
2013-01-08 01:50:00,34.5,23.0,30.15,SW,235,4.0,10.0,63,0.00,,,0.00,weatherlink.com 1.10,2013-01-08 07:50:00,
2013-01-08 02:05:00,34.3,23.0,30.15,West,264,4.0,9.0,63,0.00,,,0.00,weatherlink.com 1.10,2013-01-08 08:05:00,
2013-01-08 02:20:00,34.1,23.0,30.16,WSW,257,3.0,6.0,63,0.00,,,0.00,weatherlink.com 1.10,2013-01-08 08:20:00,
2013-01-08 02:35:00,34.0,23.0,30.16,South,184,3.0,7.0,64,0.00,,,0.00,weatherlink.com 1.10,2013-01-08 08:35:00,
2013-01-08 02:50:00,33.8,23.0,30.16,SSW,212,3.0,5.0,64,0.00,,,0.00,weatherlink.com 1.10,2013-01-08 08:50:00,
2013-01-08 03:05:00,33.8,23.0,30.16,SW,222,2.0,7.0,64,0.00,,,0.00,weatherlink.com 1.10,2013-01-08 09:05:00,
2013-01-08 03:20:00,33.7,23.0,30.16,WSW,239,4.0,8.0,65,0.00,,,0.00,weatherlink.com 1.10,2013-01-08 09:20:00,
2013-01-08 03:35:00,33.5,23.0,30.17,WSW,250,4.0,9.0,65,0.00,,,0.00,weatherlink.com 1.10,2013-01-08 09:35:00,
2013-01-08 03:51:00,33.3,23.0,30.16,WSW,252,2.0,6.0,66,0.00,,,0.00,weatherlink.com 1.10,2013-01-08 09:51:00,
2013-01-08 04:06:00,33.3,23.0,30.16,SSE,160,3.0,7.0,66,0.00,,,0.00,weatherlink.com 1.10,2013-01-08 10:06:00,
2013-01-08 04:21:00,33.3,23.0,30.16,SSW,212,2.0,7.0,66,0.00,,,0.00,weatherlink.com 1.10,2013-01-08 10:21:00,
2013-01-08 04:36:00,33.2,23.0,30.16,SW,223,3.0,8.0,67,0.00,,,0.00,weatherlink.com 1.10,2013-01-08 10:36:00,
2013-01-08 04:51:00,33.2,23.0,30.16,SSW,204,3.0,8.0,67,0.00,,,0.00,weatherlink.com 1.10,2013-01-08 10:51:00,
2013-01-08 05:06:00,33.0,23.0,30.16,SW,229,2.0,8.0,67,0.00,,,0.00,weatherlink.com 1.10,2013-01-08 11:06:00,
2013-01-08 05:21:00,32.5,23.0,30.16,SW,224,5.0,8.0,69,0.00,,,0.00,weatherlink.com 1.10,2013-01-08 11:21:00,
2013-01-08 05:36:00,32.5,23.0,30.16,WSW,256,5.0,10.0,69,0.00,,,0.00,weatherlink.com 1.10,2013-01-08 11:36:00,
2013-01-08 05:51:00,32.7,24.0,30.17,SW,229,4.0,9.0,69,0.00,,,0.00,weatherlink.com 1.10,2013-01-08 11:51:00,
2013-01-08 06:06:00,32.7,24.0,30.17,WSW,238,6.0,10.0,69,0.00,,,0.00,weatherlink.com 1.10,2013-01-08 12:06:00,
2013-01-08 06:21:00,32.9,24.0,30.17,WSW,246,9.0,12.0,69,0.00,,,0.00,weatherlink.com 1.10,2013-01-08 12:21:00,
2013-01-08 06:36:00,33.1,24.0,30.18,SSW,203,4.0,9.0,69,0.00,,,0.00,weatherlink.com 1.10,2013-01-08 12:36:00,
2013-01-08 06:51:00,33.2,24.0,30.18,WSW,243,4.0,11.0,69,0.00,,,0.00,weatherlink.com 1.10,2013-01-08 12:51:00,
2013-01-08 07:06:00,33.3,24.0,30.17,WSW,239,6.0,13.0,69,0.00,,,0.00,weatherlink.com 1.10,2013-01-08 13:06:00,
2013-01-08 07:21:00,33.3,24.0,30.18,West,266,1.0,11.0,69,0.00,,,0.00,weatherlink.com 1.10,2013-01-08 13:21:00,
2013-01-08 07:36:00,33.4,24.0,30.18,WSW,257,2.0,10.0,69,0.00,,,0.00,weatherlink.com 1.10,2013-01-08 13:36:00,
2013-01-08 07:51:00,33.5,24.0,30.18,West,266,2.0,10.0,69,0.00,,,0.00,weatherlink.com 1.10,2013-01-08 13:51:00,
2013-01-08 08:06:00,33.4,24.0,30.18,West,262,4.0,11.0,69,0.00,,,0.00,weatherlink.com 1.10,2013-01-08 14:06:00,
2013-01-08 08:21:00,33.4,24.0,30.19,SW,233,4.0,8.0,69,0.00,,,0.00,weatherlink.com 1.10,2013-01-08 14:21:00,
2013-01-08 08:36:00,33.6,24.0,30.20,SW,231,9.0,9.0,69,0.00,,,0.00,weatherlink.com 1.10,2013-01-08 14:36:00,
2013-01-08 08:51:00,34.0,24.0,30.19,WSW,240,3.0,11.0,68,0.00,,,0.00,weatherlink.com 1.10,2013-01-08 14:51:00,
2013-01-08 09:06:00,34.8,25.0,30.19,SW,229,5.0,13.0,67,0.00,,,0.00,weatherlink.com 1.10,2013-01-08 15:06:00,
2013-01-08 09:21:00,36.1,25.0,30.19,West,266,3.0,10.0,65,0.00,,,0.00,weatherlink.com 1.10,2013-01-08 15:21:00,
2013-01-08 09:36:00,37.8,26.0,30.20,SSW,205,6.0,8.0,62,0.00,,,0.00,weatherlink.com 1.10,2013-01-08 15:36:00,
2013-01-08 09:51:00,38.3,25.0,30.19,SW,217,5.0,10.0,60,0.00,,,0.00,weatherlink.com 1.10,2013-01-08 15:51:00,
2013-01-08 10:06:00,39.2,26.0,30.19,SSE,148,7.0,11.0,59,0.00,,,0.00,weatherlink.com 1.10,2013-01-08 16:06:00,
2013-01-08 10:21:00,39.9,26.0,30.19,SW,224,2.0,8.0,59,0.00,,,0.00,weatherlink.com 1.10,2013-01-08 16:21:00,
2013-01-08 10:37:00,40.5,27.0,30.18,SW,231,3.0,7.0,58,0.00,,,0.00,weatherlink.com 1.10,2013-01-08 16:37:00,
2013-01-08 10:51:00,41.2,27.0,30.18,WSW,243,6.0,8.0,57,0.00,,,0.00,weatherlink.com 1.10,2013-01-08 16:51:00,
2013-01-08 11:07:00,42.5,28.0,30.17,SW,217,2.0,7.0,56,0.00,,,0.00,weatherlink.com 1.10,2013-01-08 17:07:00,
2013-01-08 11:22:00,43.3,27.0,30.16,SW,236,3.0,8.0,54,0.00,,,0.00,weatherlink.com 1.10,2013-01-08 17:22:00,
2013-01-08 11:37:00,44.7,27.0,30.15,SW,226,5.0,11.0,50,0.00,,,0.00,weatherlink.com 1.10,2013-01-08 17:37:00,
2013-01-08 11:52:00,45.4,31.0,30.15,WSW,243,1.0,4.0,57,0.00,,,0.00,weatherlink.com 1.10,2013-01-08 17:52:00,
2013-01-08 12:07:00,45.5,31.0,30.14,West,259,0.0,4.0,57,0.00,,,0.00,weatherlink.com 1.10,2013-01-08 18:07:00,
2013-01-08 12:22:00,46.7,28.0,30.14,WSW,252,3.0,8.0,48,0.00,,,0.00,weatherlink.com 1.10,2013-01-08 18:22:00,
2013-01-08 12:37:00,46.8,28.0,30.13,SW,228,5.0,8.0,48,0.00,,,0.00,weatherlink.com 1.10,2013-01-08 18:37:00,
2013-01-08 12:52:00,47.5,28.0,30.13,West,264,1.0,8.0,47,0.00,,,0.00,weatherlink.com 1.10,2013-01-08 18:52:00,
2013-01-08 13:08:00,47.9,27.0,30.12,SSW,203,3.0,8.0,45,0.00,,,0.00,weatherlink.com 1.10,2013-01-08 19:08:00,
2013-01-08 13:22:00,48.7,27.0,30.11,SW,221,3.0,8.0,44,0.00,,,0.00,weatherlink.com 1.10,2013-01-08 19:22:00,
2013-01-08 13:37:00,49.7,25.0,30.10,South,172,5.0,10.0,39,0.00,,,0.00,weatherlink.com 1.10,2013-01-08 19:37:00,
2013-01-08 13:52:00,49.2,29.0,30.10,East,89,5.0,8.0,46,0.00,,,0.00,weatherlink.com 1.10,2013-01-08 19:52:00,
2013-01-08 14:07:00,49.8,27.0,30.09,South,170,3.0,9.0,42,0.00,,,0.00,weatherlink.com 1.10,2013-01-08 20:07:00,
2013-01-08 14:22:00,49.8,28.0,30.09,SE,138,5.0,8.0,43,0.00,,,0.00,weatherlink.com 1.10,2013-01-08 20:22:00,
2013-01-08 14:37:00,50.3,28.0,30.08,SSE,153,4.0,10.0,42,0.00,,,0.00,weatherlink.com 1.10,2013-01-08 20:37:00,
2013-01-08 14:52:00,50.5,27.0,30.09,SSE,150,9.0,11.0,41,0.00,,,0.00,weatherlink.com 1.10,2013-01-08 20:52:00,
2013-01-08 15:07:00,50.4,27.0,30.09,SE,139,6.0,11.0,40,0.00,,,0.00,weatherlink.com 1.10,2013-01-08 21:07:00,
2013-01-08 15:22:00,50.6,27.0,30.09,SSE,150,6.0,11.0,40,0.00,,,0.00,weatherlink.com 1.10,2013-01-08 21:22:00,
2013-01-08 15:37:00,50.7,26.0,30.08,SE,142,5.0,8.0,39,0.00,,,0.00,weatherlink.com 1.10,2013-01-08 21:37:00,
2013-01-08 15:52:00,50.7,26.0,30.08,SE,144,2.0,7.0,39,0.00,,,0.00,weatherlink.com 1.10,2013-01-08 21:52:00,
2013-01-08 16:07:00,49.7,26.0,30.09,SSE,151,6.0,8.0,40,0.00,,,0.00,weatherlink.com 1.10,2013-01-08 22:07:00,
2013-01-08 16:22:00,49.6,26.0,30.09,SSE,160,8.0,13.0,40,0.00,,,0.00,weatherlink.com 1.10,2013-01-08 22:22:00,
2013-01-08 16:37:00,49.1,27.0,30.09,SSE,160,5.0,11.0,42,0.00,,,0.00,weatherlink.com 1.10,2013-01-08 22:37:00,
2013-01-08 16:52:00,48.6,27.0,30.09,SSE,150,5.0,10.0,43,0.00,,,0.00,weatherlink.com 1.10,2013-01-08 22:52:00,
2013-01-08 17:07:00,47.9,27.0,30.09,East,86,9.0,11.0,45,0.00,,,0.00,weatherlink.com 1.10,2013-01-08 23:07:00,
2013-01-08 17:22:00,47.4,28.0,30.09,SSE,158,8.0,14.0,47,0.00,,,0.00,weatherlink.com 1.10,2013-01-08 23:22:00,
2013-01-08 17:37:00,46.9,29.0,30.09,SSE,162,6.0,13.0,50,0.00,,,0.00,weatherlink.com 1.10,2013-01-08 23:37:00,
2013-01-08 17:52:00,46.7,30.0,30.09,SE,136,8.0,14.0,53,0.00,,,0.00,weatherlink.com 1.10,2013-01-08 23:52:00,
2013-01-08 18:07:00,46.8,31.0,30.09,SE,139,16.0,17.0,54,0.00,,,0.00,weatherlink.com 1.10,2013-01-09 00:07:00,
2013-01-08 18:22:00,46.8,31.0,30.09,SSE,153,10.0,23.0,54,0.00,,,0.00,weatherlink.com 1.10,2013-01-09 00:22:00,
2013-01-08 18:37:00,46.9,30.0,30.08,SE,146,8.0,16.0,53,0.00,,,0.00,weatherlink.com 1.10,2013-01-09 00:37:00,
2013-01-08 18:52:00,47.1,30.0,30.09,SSW,207,4.0,17.0,52,0.00,,,0.00,weatherlink.com 1.10,2013-01-09 00:52:00,
2013-01-08 19:07:00,47.3,29.0,30.09,SSE,165,10.0,16.0,50,0.00,,,0.00,weatherlink.com 1.10,2013-01-09 01:07:00,
2013-01-08 19:23:00,47.7,28.0,30.10,South,172,10.0,14.0,47,0.00,,,0.00,weatherlink.com 1.10,2013-01-09 01:23:00,
2013-01-08 19:38:00,48.4,27.0,30.10,SW,214,7.0,13.0,43,0.00,,,0.00,weatherlink.com 1.10,2013-01-09 01:38:00,
2013-01-08 19:53:00,48.9,26.0,30.10,SSE,167,9.0,20.0,41,0.00,,,0.00,weatherlink.com 1.10,2013-01-09 01:53:00,
2013-01-08 20:08:00,49.2,26.0,30.10,South,184,10.0,16.0,41,0.00,,,0.00,weatherlink.com 1.10,2013-01-09 02:08:00,
2013-01-08 20:23:00,49.4,27.0,30.11,SSE,167,5.0,13.0,42,0.00,,,0.00,weatherlink.com 1.10,2013-01-09 02:23:00,
2013-01-08 20:38:00,49.2,27.0,30.10,SW,226,8.0,19.0,43,0.00,,,0.00,weatherlink.com 1.10,2013-01-09 02:38:00,
2013-01-08 20:54:00,48.9,28.0,30.10,SW,235,4.0,14.0,45,0.00,,,0.00,weatherlink.com 1.10,2013-01-09 02:54:00,
2013-01-08 21:23:00,48.9,29.0,30.12,SW,232,4.0,15.0,47,0.00,,,0.00,weatherlink.com 1.10,2013-01-09 03:23:00,
2013-01-08 21:38:00,48.5,29.0,30.12,WSW,256,3.0,9.0,48,0.00,,,0.00,weatherlink.com 1.10,2013-01-09 03:38:00,
2013-01-08 21:53:00,48.3,30.0,30.12,SW,233,4.0,8.0,49,0.00,,,0.00,weatherlink.com 1.10,2013-01-09 03:53:00,
2013-01-08 22:08:00,48.0,29.0,30.12,WSW,243,2.0,8.0,49,0.00,,,0.00,weatherlink.com 1.10,2013-01-09 04:08:00,
2013-01-08 22:23:00,47.7,30.0,30.13,West,269,8.0,9.0,51,0.00,,,0.00,weatherlink.com 1.10,2013-01-09 04:23:00,
2013-01-08 22:38:00,47.6,31.0,30.13,West,263,5.0,12.0,52,0.00,,,0.00,weatherlink.com 1.10,2013-01-09 04:38:00,
2013-01-08 22:53:00,47.4,31.0,30.13,SW,232,4.0,9.0,54,0.00,,,0.00,weatherlink.com 1.10,2013-01-09 04:53:00,
2013-01-08 23:08:00,47.1,31.0,30.13,SW,224,6.0,11.0,55,0.00,,,0.00,weatherlink.com 1.10,2013-01-09 05:08:00,
2013-01-08 23:23:00,47.0,31.0,30.14,WSW,253,8.0,10.0,55,0.00,,,0.00,weatherlink.com 1.10,2013-01-09 05:23:00,
2013-01-08 23:38:00,46.7,32.0,30.14,West,269,3.0,9.0,56,0.00,,,0.00,weatherlink.com 1.10,2013-01-09 05:38:00,
2013-01-08 23:53:00,46.8,32.0,30.15,SW,235,6.0,10.0,57,0.00,,,0.00,weatherlink.com 1.10,2013-01-09 05:53:00,